Time;durP1;ratioP1;P1;durP2;ratioP2;P2;SDS_P1;SDS_P2;PMS_P1;PMS_P2;Temp;Humidity;BMP_temperature;BMP_pressure;BME280_temperature;BME280_humidity;BME280_pressure;Samples;Min_cycle;Max_cycle;Signal;HPM_P1;HPM_P2
2022/07/29 00:01:14;;;;;;;3.57;3.27;;;19.50;99.90;;;;;;5109902;28;20669;-84
2022/07/29 00:03:41;;;;;;;3.33;3.10;;;19.50;99.90;;;;;;5109871;28;21288;-85
2022/07/29 00:06:08;;;;;;;4.30;3.90;;;19.50;99.90;;;;;;5109709;28;20619;-84
2022/07/29 00:08:35;;;;;;;3.63;3.33;;;19.40;99.90;;;;;;5108862;28;21248;-85
2022/07/29 00:11:02;;;;;;;4.40;4.00;;;19.50;99.90;;;;;;5109808;28;20612;-84
2022/07/29 00:13:29;;;;;;;4.03;3.37;;;19.60;99.90;;;;;;5108638;28;20619;-85
2022/07/29 00:15:59;;;;;;;3.80;3.40;;;19.60;99.90;;;;;;5109713;28;21314;-84
2022/07/29 00:18:26;;;;;;;4.00;3.70;;;19.60;99.90;;;;;;5109640;28;21196;-85
2022/07/29 00:20:54;;;;;;;3.33;2.70;;;19.60;99.90;;;;;;5109558;28;20620;-84
2022/07/29 00:23:21;;;;;;;3.60;3.30;;;19.60;99.90;;;;;;5107634;28;20730;-84
2022/07/29 00:25:49;;;;;;;3.47;3.17;;;19.60;99.90;;;;;;5108382;28;20629;-85
2022/07/29 00:28:16;;;;;;;3.50;3.20;;;19.50;99.90;;;;;;5109424;28;21224;-85
2022/07/29 00:30:44;;;;;;;3.90;2.70;;;19.40;99.90;;;;;;5109460;28;20723;-85
2022/07/29 00:33:13;;;;;;;3.10;2.80;;;19.30;99.90;;;;;;5109401;28;20620;-85
2022/07/29 00:35:43;;;;;;;3.30;3.00;;;19.20;99.90;;;;;;5109108;28;20620;-85
2022/07/29 00:38:12;;;;;;;3.43;3.13;;;19.30;99.90;;;;;;5109975;28;21042;-85
2022/07/29 00:40:39;;;;;;;5.20;4.00;;;19.40;99.90;;;;;;5109409;28;21241;-84
2022/07/29 00:43:06;;;;;;;4.10;3.70;;;19.50;99.90;;;;;;5108548;28;21327;-84
2022/07/29 00:45:34;;;;;;;3.30;3.10;;;19.50;99.90;;;;;;5109466;28;20716;-85
2022/07/29 00:48:04;;;;;;;3.63;3.30;;;19.30;99.90;;;;;;5109569;28;20751;-85
2022/07/29 00:50:34;;;;;;;3.43;3.13;;;19.40;99.90;;;;;;5108598;28;20635;-84
2022/07/29 00:53:04;;;;;;;3.80;3.50;;;19.40;99.90;;;;;;5109337;28;21209;-85
2022/07/29 00:55:32;;;;;;;3.60;3.30;;;19.30;99.90;;;;;;5109080;28;20676;-84
2022/07/29 00:58:00;;;;;;;3.93;3.63;;;19.30;99.90;;;;;;5108945;28;20624;-84
2022/07/29 01:00:28;;;;;;;3.33;2.80;;;19.30;99.90;;;;;;5109007;28;20647;-85
2022/07/29 01:02:55;;;;;;;4.20;3.90;;;19.40;99.90;;;;;;5107939;28;20608;-84
2022/07/29 01:05:24;;;;;;;3.90;3.27;;;19.40;99.90;;;;;;5108933;28;21380;-84
2022/07/29 01:07:55;;;;;;;3.53;3.23;;;19.40;99.90;;;;;;5107663;28;20720;-84
2022/07/29 01:10:23;;;;;;;2.97;2.77;;;19.30;99.90;;;;;;5108933;28;21242;-84
2022/07/29 01:12:52;;;;;;;2.67;2.47;;;19.30;99.90;;;;;;5103969;28;20681;-85
2022/07/29 01:15:20;;;;;;;3.93;3.47;;;19.00;99.90;;;;;;5108556;28;20639;-85
2022/07/29 01:17:54;;;;;;;3.13;2.83;;;18.90;99.90;;;;;;5108677;28;20645;-84
2022/07/29 01:20:28;;;;;;;3.30;3.00;;;18.90;99.90;;;;;;5109983;28;20611;-84
2022/07/29 01:23:32;;;;;;;3.20;2.87;;;19.10;99.90;;;;;;5107136;28;20680;-85
2022/07/29 01:26:16;;;;;;;3.37;3.00;;;19.00;99.90;;;;;;5094145;28;20619;-85
2022/07/29 01:28:55;;;;;;;2.83;2.63;;;19.00;99.90;;;;;;5108105;28;20655;-84
2022/07/29 01:31:34;;;;;;;3.03;2.73;;;18.90;99.90;;;;;;5108144;28;20619;-85
2022/07/29 01:34:08;;;;;;;4.70;3.20;;;19.00;99.90;;;;;;5107008;28;20630;-85
2022/07/29 01:36:43;;;;;;;2.77;2.57;;;18.90;99.90;;;;;;5108026;28;20652;-84
2022/07/29 01:39:14;;;;;;;3.23;2.93;;;18.80;99.90;;;;;;5095422;28;20669;-84
2022/07/29 01:41:50;;;;;;;2.83;2.53;;;18.70;99.90;;;;;;5099380;28;21256;-85
2022/07/29 01:44:23;;;;;;;3.60;3.30;;;18.60;99.90;;;;;;5107577;28;20627;-84
2022/07/29 01:46:56;;;;;;;2.53;2.33;;;18.50;99.90;;;;;;5107665;28;20646;-84
2022/07/29 01:49:29;;;;;;;2.93;2.73;;;18.60;99.90;;;;;;5108394;28;20647;-84
2022/07/29 01:52:04;;;;;;;3.60;3.30;;;18.70;99.90;;;;;;5104953;28;20845;-84
2022/07/29 01:54:36;;;;;;;3.67;2.73;;;18.70;99.90;;;;;;5107122;28;20625;-84
2022/07/29 01:57:07;;;;;;;3.40;2.77;;;18.70;99.90;;;;;;5107672;28;20616;-84
2022/07/29 01:59:37;;;;;;;3.77;3.30;;;18.70;99.90;;;;;;5107110;28;20624;-85
2022/07/29 02:02:08;;;;;;;3.43;2.60;;;18.50;99.90;;;;;;5107459;28;20624;-84
2022/07/29 02:04:37;;;;;;;3.17;2.50;;;18.50;99.90;;;;;;5107840;28;20701;-85
2022/07/29 02:07:07;;;;;;;3.17;2.93;;;18.40;99.90;;;;;;5108006;28;20639;-85
2022/07/29 02:09:36;;;;;;;2.73;2.53;;;18.50;99.90;;;;;;5106933;28;20678;-85
2022/07/29 02:12:04;;;;;;;3.20;2.90;;;18.50;99.90;;;;;;5107483;28;21193;-84
2022/07/29 02:14:37;;;;;;;3.30;2.67;;;18.70;99.90;;;;;;5107547;28;20628;-85
2022/07/29 02:17:04;;;;;;;3.17;2.90;;;18.60;99.90;;;;;;5107446;28;20715;-85
2022/07/29 02:19:33;;;;;;;3.60;2.90;;;18.70;99.90;;;;;;5107601;28;20623;-84
2022/07/29 02:22:01;;;;;;;2.57;2.37;;;18.60;99.90;;;;;;5107030;28;21053;-85
2022/07/29 02:24:30;;;;;;;3.13;2.80;;;18.60;99.90;;;;;;5107157;28;20628;-84
2022/07/29 02:26:58;;;;;;;2.97;2.77;;;18.50;99.90;;;;;;5087468;28;20735;-84
2022/07/29 02:29:29;;;;;;;3.00;2.80;;;18.50;99.90;;;;;;5107587;28;20644;-84
2022/07/29 02:31:59;;;;;;;3.07;2.87;;;18.50;99.90;;;;;;5107161;28;21209;-84
2022/07/29 02:34:27;;;;;;;2.50;2.10;;;18.60;99.90;;;;;;5106522;28;20718;-84
2022/07/29 02:36:56;;;;;;;2.63;2.43;;;18.50;99.90;;;;;;5107576;28;20616;-84
2022/07/29 02:39:25;;;;;;;4.30;2.77;;;18.50;99.90;;;;;;5107854;28;21256;-84
2022/07/29 02:41:55;;;;;;;3.23;2.97;;;18.50;99.90;;;;;;5107126;28;20623;-84
2022/07/29 02:44:25;;;;;;;2.93;2.73;;;18.60;99.90;;;;;;5103448;28;20718;-84
2022/07/29 02:46:54;;;;;;;2.17;2.00;;;18.60;99.90;;;;;;5110424;28;20628;-85
2022/07/29 02:49:34;;;;;;;3.53;2.50;;;18.50;99.90;;;;;;5111074;28;21543;-84
2022/07/29 02:52:04;;;;;;;2.83;2.63;;;18.50;99.90;;;;;;5111281;28;20625;-84
2022/07/29 02:54:38;;;;;;;2.97;2.50;;;18.40;99.90;;;;;;5111167;28;20693;-85
2022/07/29 02:57:11;;;;;;;3.17;2.90;;;18.50;99.90;;;;;;5111819;28;20634;-85
2022/07/29 02:59:42;;;;;;;2.80;2.53;;;18.50;99.90;;;;;;5110855;28;21026;-84
2022/07/29 03:02:11;;;;;;;3.33;2.63;;;18.50;99.90;;;;;;5111368;28;20681;-84
2022/07/29 03:04:41;;;;;;;2.20;2.10;;;18.50;99.90;;;;;;5111596;28;20726;-84
2022/07/29 03:07:09;;;;;;;3.20;2.63;;;18.40;99.90;;;;;;5111465;28;20619;-84
2022/07/29 03:09:37;;;;;;;2.93;2.70;;;18.30;99.90;;;;;;5110546;28;20778;-85
2022/07/29 03:12:06;;;;;;;3.33;3.00;;;18.30;99.90;;;;;;5110375;28;20658;-84
2022/07/29 03:14:33;;;;;;;2.70;2.50;;;18.30;99.90;;;;;;5110559;28;20631;-84
2022/07/29 03:17:00;;;;;;;2.77;2.37;;;18.40;99.90;;;;;;5110868;28;21166;-85
2022/07/29 03:19:27;;;;;;;2.70;2.50;;;18.50;99.90;;;;;;5092898;28;20978;-84
2022/07/29 03:21:58;;;;;;;3.40;3.10;;;18.50;99.90;;;;;;5109980;28;20628;-85
2022/07/29 03:24:29;;;;;;;2.40;2.20;;;18.40;99.90;;;;;;5110050;28;20707;-85
2022/07/29 03:26:57;;;;;;;3.23;2.83;;;18.30;99.90;;;;;;5109976;28;20627;-84
2022/07/29 03:29:24;;;;;;;2.70;2.50;;;18.20;99.90;;;;;;5110731;28;21256;-84
2022/07/29 03:31:51;;;;;;;3.27;2.73;;;18.20;99.90;;;;;;5109974;28;20615;-85
2022/07/29 03:34:18;;;;;;;3.40;2.50;;;18.20;99.90;;;;;;5110062;28;20715;-84
2022/07/29 03:36:45;;;;;;;2.37;2.17;;;18.00;99.90;;;;;;5110266;27;20658;-85
2022/07/29 03:39:17;;;;;;;2.47;2.27;;;17.90;99.90;;;;;;5104399;28;20667;-84
2022/07/29 03:41:46;;;;;;;2.47;2.27;;;17.90;99.90;;;;;;5106688;28;20626;-85
2022/07/29 03:44:16;;;;;;;2.87;2.67;;;17.90;99.90;;;;;;5109646;28;21563;-85
2022/07/29 03:46:44;;;;;;;2.77;2.57;;;17.80;99.90;;;;;;5110636;28;20607;-84
2022/07/29 03:49:13;;;;;;;4.37;3.40;;;17.80;99.90;;;;;;5109690;28;20714;-84
2022/07/29 03:51:40;;;;;;;2.20;2.00;;;17.80;99.90;;;;;;5109984;28;20676;-84
2022/07/29 03:54:07;;;;;;;3.37;2.50;;;17.80;99.90;;;;;;5109382;28;20685;-84
2022/07/29 03:56:40;;;;;;;2.10;2.00;;;17.90;99.90;;;;;;5110114;28;20619;-85
2022/07/29 03:59:08;;;;;;;2.50;2.23;;;17.90;99.90;;;;;;5109472;28;20611;-84
2022/07/29 04:01:36;;;;;;;3.00;2.80;;;17.90;99.90;;;;;;5110088;28;20704;-85
2022/07/29 04:04:04;;;;;;;2.80;2.60;;;17.90;99.90;;;;;;5108565;28;20674;-86
2022/07/29 04:06:38;;;;;;;2.60;2.40;;;17.80;99.90;;;;;;5110160;28;20720;-84
2022/07/29 04:09:05;;;;;;;2.80;2.60;;;17.80;99.90;;;;;;5108056;28;20689;-85
2022/07/29 04:11:32;;;;;;;2.57;2.20;;;17.80;99.90;;;;;;5110081;28;20634;-84
2022/07/29 04:14:00;;;;;;;3.37;2.90;;;17.70;99.90;;;;;;5109199;28;20624;-85
2022/07/29 04:16:27;;;;;;;3.70;3.03;;;17.70;99.90;;;;;;5109469;28;20644;-86
2022/07/29 04:18:54;;;;;;;2.13;1.97;;;17.70;99.90;;;;;;5109188;28;20696;-84
2022/07/29 04:21:21;;;;;;;3.70;2.90;;;17.70;99.90;;;;;;5110145;28;20626;-84
2022/07/29 04:23:49;;;;;;;2.47;2.17;;;17.60;99.90;;;;;;5109420;28;20731;-84
2022/07/29 04:26:16;;;;;;;2.37;2.17;;;17.50;99.90;;;;;;5109741;28;21351;-85
2022/07/29 04:28:43;;;;;;;3.23;2.77;;;17.60;99.90;;;;;;5108415;28;20658;-83
2022/07/29 04:31:12;;;;;;;2.73;2.50;;;17.70;99.90;;;;;;5109028;28;20677;-84
2022/07/29 04:33:40;;;;;;;2.03;1.90;;;17.80;99.90;;;;;;5108906;28;20651;-84
2022/07/29 04:36:07;;;;;;;2.87;2.53;;;17.80;99.90;;;;;;5109772;28;20729;-85
2022/07/29 04:38:34;;;;;;;2.37;2.20;;;17.90;99.90;;;;;;5109293;28;20731;-84
2022/07/29 04:41:00;;;;;;;3.00;2.50;;;18.00;99.90;;;;;;5109811;28;20616;-85
2022/07/29 04:43:27;;;;;;;2.90;2.30;;;18.00;99.90;;;;;;5109043;28;21300;-85
2022/07/29 04:45:54;;;;;;;1.97;1.87;;;17.90;99.90;;;;;;5109931;28;20675;-85
2022/07/29 04:48:22;;;;;;;2.50;2.07;;;18.00;99.90;;;;;;5110209;28;20623;-85
2022/07/29 04:50:49;;;;;;;3.10;2.17;;;18.00;99.90;;;;;;5108390;28;20635;-85
2022/07/29 04:53:16;;;;;;;1.50;1.40;;;18.10;99.90;;;;;;5108495;28;20624;-86
2022/07/29 04:55:43;;;;;;;1.53;1.40;;;18.20;99.90;;;;;;5108532;27;20717;-85
2022/07/29 04:58:10;;;;;;;2.03;1.70;;;18.40;99.90;;;;;;5108404;28;20631;-85
2022/07/29 05:00:37;;;;;;;2.00;1.90;;;18.50;99.90;;;;;;5107396;28;20720;-84
2022/07/29 05:03:04;;;;;;;3.30;2.80;;;18.60;99.90;;;;;;5103760;28;20731;-84
2022/07/29 05:05:32;;;;;;;2.10;2.00;;;18.80;99.90;;;;;;5109004;28;21322;-84
2022/07/29 05:07:59;;;;;;;2.10;1.90;;;18.90;99.90;;;;;;5108591;28;21221;-84
2022/07/29 05:10:26;;;;;;;3.60;2.40;;;19.00;99.90;;;;;;5107665;28;20744;-84
2022/07/29 05:12:53;;;;;;;1.73;1.63;;;19.00;99.90;;;;;;5107422;28;20707;-85
2022/07/29 05:15:20;;;;;;;2.60;2.30;;;19.20;99.90;;;;;;5109137;28;21197;-84
2022/07/29 05:17:46;;;;;;;2.27;2.07;;;19.20;99.90;;;;;;5108354;28;20727;-84
2022/07/29 05:20:13;;;;;;;2.07;1.93;;;19.20;99.90;;;;;;5108287;28;21197;-84
2022/07/29 05:22:41;;;;;;;2.30;2.10;;;19.30;99.90;;;;;;5108033;28;20660;-84
2022/07/29 05:25:09;;;;;;;2.10;2.00;;;19.30;99.90;;;;;;5108315;28;21545;-84
2022/07/29 05:27:36;;;;;;;2.53;2.33;;;19.40;99.90;;;;;;5107670;28;20618;-84
2022/07/29 05:30:04;;;;;;;2.13;1.93;;;19.50;99.90;;;;;;5108437;28;20989;-84
2022/07/29 05:32:31;;;;;;;3.33;2.07;;;19.60;99.90;;;;;;5102917;28;20754;-84
2022/07/29 05:34:58;;;;;;;3.10;2.50;;;19.70;99.90;;;;;;5108552;28;20624;-84
2022/07/29 05:37:25;;;;;;;2.17;1.97;;;19.70;99.90;;;;;;5108190;28;20624;-84
2022/07/29 05:39:53;;;;;;;1.50;1.40;;;19.80;99.90;;;;;;5108475;28;20691;-84
2022/07/29 05:42:20;;;;;;;2.30;1.80;;;19.80;99.90;;;;;;5108179;28;20627;-85
2022/07/29 05:44:47;;;;;;;1.73;1.63;;;19.90;99.90;;;;;;5108122;28;20708;-84
2022/07/29 05:47:14;;;;;;;1.80;1.70;;;19.80;99.90;;;;;;5108498;28;21204;-85
2022/07/29 05:49:41;;;;;;;2.00;1.80;;;19.90;99.90;;;;;;5107758;28;20767;-84
2022/07/29 05:52:08;;;;;;;1.93;1.83;;;20.00;99.90;;;;;;5107864;28;20659;-83
2022/07/29 05:54:35;;;;;;;2.20;1.93;;;20.10;99.90;;;;;;5107769;28;20622;-84
2022/07/29 05:57:04;;;;;;;2.07;1.80;;;20.00;99.90;;;;;;5107849;28;21185;-84
2022/07/29 05:59:31;;;;;;;1.90;1.80;;;20.10;99.90;;;;;;5104274;28;20650;-84
2022/07/29 06:01:58;;;;;;;1.70;1.60;;;20.20;99.90;;;;;;5108467;28;20611;-84
2022/07/29 06:04:25;;;;;;;1.90;1.80;;;20.40;99.90;;;;;;5107483;28;21025;-84
2022/07/29 06:06:52;;;;;;;2.17;1.97;;;20.40;99.90;;;;;;5107028;28;20612;-83
2022/07/29 06:09:19;;;;;;;2.97;1.80;;;20.50;99.90;;;;;;5104965;28;21519;-84
2022/07/29 06:11:46;;;;;;;2.10;2.00;;;20.60;99.90;;;;;;5108331;28;20631;-84
2022/07/29 06:14:15;;;;;;;1.83;1.70;;;20.70;99.90;;;;;;5107843;28;20640;-83
2022/07/29 06:16:42;;;;;;;2.60;2.40;;;20.70;99.90;;;;;;5108099;28;21271;-84
2022/07/29 06:19:09;;;;;;;1.87;1.77;;;20.80;99.70;;;;;;5107447;28;20624;-84
2022/07/29 06:21:36;;;;;;;2.60;2.40;;;21.00;99.40;;;;;;5109767;28;21026;-82
2022/07/29 06:24:03;;;;;;;2.03;1.73;;;21.10;99.10;;;;;;5112039;28;20607;-83
2022/07/29 06:26:30;;;;;;;2.50;2.30;;;21.20;98.60;;;;;;5111872;28;20706;-83
2022/07/29 06:28:57;;;;;;;2.27;2.10;;;21.40;98.40;;;;;;5112362;28;20647;-83
2022/07/29 06:31:25;;;;;;;1.70;1.60;;;21.50;98.10;;;;;;5112101;28;20623;-83
2022/07/29 06:33:52;;;;;;;2.80;2.60;;;21.60;98.20;;;;;;5108483;28;20738;-83
2022/07/29 06:36:19;;;;;;;3.03;2.07;;;21.70;97.90;;;;;;5110938;28;20633;-83
2022/07/29 06:38:46;;;;;;;2.33;2.13;;;21.80;97.90;;;;;;5111204;28;20682;-83
2022/07/29 06:41:15;;;;;;;2.47;2.27;;;21.90;97.60;;;;;;5110845;28;20727;-83
2022/07/29 06:43:44;;;;;;;3.90;3.17;;;22.20;97.80;;;;;;5099908;28;20674;-83
2022/07/29 06:46:12;;;;;;;3.30;2.80;;;22.10;96.90;;;;;;5108040;28;20623;-83
2022/07/29 06:48:42;;;;;;;3.77;2.50;;;22.30;96.80;;;;;;5101173;28;20624;-82
2022/07/29 06:51:11;;;;;;;2.83;2.63;;;22.20;96.70;;;;;;5108608;28;21124;-83
2022/07/29 06:53:38;;;;;;;2.07;1.97;;;22.20;96.70;;;;;;5109600;28;20619;-82
2022/07/29 06:56:08;;;;;;;4.30;2.43;;;22.20;96.90;;;;;;5109284;28;20623;-83
2022/07/29 06:58:35;;;;;;;3.80;2.50;;;22.20;96.90;;;;;;5109524;28;20623;-82
2022/07/29 07:01:03;;;;;;;2.77;2.57;;;21.90;96.80;;;;;;5108187;28;20624;-85
2022/07/29 07:03:30;;;;;;;2.90;2.60;;;21.70;97.10;;;;;;5102519;28;21288;-85
2022/07/29 07:05:59;;;;;;;3.10;2.80;;;21.70;97.70;;;;;;5104443;28;20680;-83
2022/07/29 07:08:26;;;;;;;2.40;2.20;;;21.90;97.70;;;;;;5110463;28;20621;-85
2022/07/29 07:10:54;;;;;;;4.17;2.80;;;22.00;97.40;;;;;;5110864;28;21387;-85
2022/07/29 07:13:24;;;;;;;3.10;2.80;;;22.20;97.00;;;;;;5110060;28;21014;-85
2022/07/29 07:15:51;;;;;;;3.30;3.00;;;22.40;96.70;;;;;;5105139;28;20623;-85
2022/07/29 07:18:19;;;;;;;2.70;2.50;;;22.50;96.60;;;;;;5109549;28;20646;-85
2022/07/29 07:20:47;;;;;;;2.80;2.60;;;22.40;96.80;;;;;;5110277;28;20685;-86
2022/07/29 07:23:15;;;;;;;3.43;2.97;;;22.40;96.30;;;;;;5110065;28;20631;-85
2022/07/29 07:25:42;;;;;;;2.87;2.67;;;22.50;95.90;;;;;;5109175;28;20624;-86
2022/07/29 07:28:09;;;;;;;2.50;2.30;;;22.50;95.80;;;;;;5106771;28;21305;-85
2022/07/29 07:30:36;;;;;;;3.20;2.90;;;22.50;96.00;;;;;;5108951;28;20708;-85
2022/07/29 07:33:04;;;;;;;2.43;2.30;;;22.50;97.10;;;;;;5108644;28;20658;-85
2022/07/29 07:35:31;;;;;;;2.90;2.60;;;22.50;96.70;;;;;;5109838;28;20623;-85
2022/07/29 07:37:58;;;;;;;2.73;2.30;;;22.60;97.00;;;;;;5110085;28;20619;-85
2022/07/29 07:40:27;;;;;;;4.90;2.57;;;22.60;96.50;;;;;;5109579;28;20672;-85
2022/07/29 07:42:53;;;;;;;4.90;2.90;;;22.60;97.00;;;;;;5109343;28;20659;-85
2022/07/29 07:45:21;;;;;;;3.10;2.77;;;22.70;96.50;;;;;;5109968;28;21253;-85
2022/07/29 07:47:47;;;;;;;3.23;3.00;;;22.80;97.10;;;;;;5110014;27;20646;-88
2022/07/29 07:50:15;;;;;;;4.73;3.20;;;22.90;96.70;;;;;;5106358;28;20743;-85
2022/07/29 07:52:49;;;;;;;3.03;2.73;;;23.20;96.40;;;;;;5108394;28;20623;-85
2022/07/29 07:55:17;;;;;;;3.97;3.27;;;23.40;95.90;;;;;;5108629;28;20684;-85
2022/07/29 07:57:46;;;;;;;3.47;3.17;;;23.40;95.00;;;;;;5110753;28;20633;-85
2022/07/29 08:00:14;;;;;;;4.10;3.00;;;23.30;96.20;;;;;;5103239;28;20739;-85
2022/07/29 08:02:42;;;;;;;3.30;3.00;;;23.00;96.00;;;;;;5102561;28;21131;-86
2022/07/29 08:05:11;;;;;;;3.47;3.00;;;23.10;95.90;;;;;;5114252;28;20627;-85
2022/07/29 08:07:38;;;;;;;3.23;2.93;;;23.40;95.30;;;;;;5112812;28;20688;-84
2022/07/29 08:10:06;;;;;;;3.87;3.20;;;23.50;95.10;;;;;;5112843;28;21584;-85
2022/07/29 08:12:32;;;;;;;3.40;3.20;;;23.60;95.30;;;;;;5113625;28;20624;-85
2022/07/29 08:15:01;;;;;;;3.87;3.27;;;23.80;94.50;;;;;;5111607;28;20678;-87
2022/07/29 08:17:28;;;;;;;3.87;3.40;;;23.90;94.60;;;;;;5100694;28;20756;-86
2022/07/29 08:19:55;;;;;;;3.40;3.20;;;24.00;94.10;;;;;;5097823;28;20628;-85
2022/07/29 08:22:22;;;;;;;3.13;2.93;;;24.20;93.90;;;;;;5108428;28;20747;-84
2022/07/29 08:24:53;;;;;;;3.57;3.27;;;24.20;93.70;;;;;;5107652;28;20707;-84
2022/07/29 08:27:23;;;;;;;3.23;2.93;;;24.10;92.70;;;;;;5106793;28;20626;-85
2022/07/29 08:29:50;;;;;;;3.10;2.90;;;23.70;93.00;;;;;;5108694;28;20639;-86
2022/07/29 08:32:18;;;;;;;3.27;2.93;;;23.80;93.50;;;;;;5108758;28;20727;-86
2022/07/29 08:34:46;;;;;;;3.40;3.10;;;24.00;91.60;;;;;;5109189;28;20673;-86
2022/07/29 08:37:13;;;;;;;3.30;3.10;;;24.00;87.40;;;;;;5107044;28;20727;-86
2022/07/29 08:39:46;;;;;;;3.80;3.50;;;24.20;85.60;;;;;;5105975;28;21031;-85
2022/07/29 08:42:17;;;;;;;2.57;2.37;;;24.20;84.00;;;;;;5109846;28;20989;-86
2022/07/29 08:44:50;;;;;;;3.80;3.50;;;24.10;83.90;;;;;;5107906;28;20634;-86
2022/07/29 08:47:20;;;;;;;3.20;2.90;;;24.00;84.00;;;;;;5104087;28;20635;-85
2022/07/29 08:49:48;;;;;;;3.03;2.70;;;24.10;84.30;;;;;;5111140;28;21352;-85
2022/07/29 08:52:16;;;;;;;3.77;3.57;;;24.20;84.50;;;;;;5110852;28;20723;-85
2022/07/29 08:54:44;;;;;;;3.40;3.20;;;24.30;85.30;;;;;;5101755;28;20616;-85
2022/07/29 08:57:14;;;;;;;3.30;3.10;;;24.40;85.20;;;;;;5107881;28;20607;-85
2022/07/29 08:59:43;;;;;;;4.10;3.20;;;24.50;85.40;;;;;;5110100;28;20672;-85
2022/07/29 09:02:19;;;;;;;3.33;3.03;;;24.50;84.30;;;;;;5108614;28;21335;-85
2022/07/29 09:04:47;;;;;;;3.33;3.10;;;24.60;84.60;;;;;;5109008;28;20677;-85
2022/07/29 09:07:17;;;;;;;3.87;3.47;;;24.80;83.40;;;;;;5110912;28;20651;-85
2022/07/29 09:09:44;;;;;;;3.17;2.97;;;25.00;84.10;;;;;;5109645;28;20714;-85
2022/07/29 09:12:15;;;;;;;3.70;3.40;;;25.20;78.90;;;;;;5109865;28;20728;-86
2022/07/29 09:14:45;;;;;;;3.13;2.83;;;25.30;80.30;;;;;;5110534;28;20627;-86
2022/07/29 09:17:16;;;;;;;3.20;3.03;;;25.50;79.70;;;;;;5108404;28;20623;-86
2022/07/29 09:19:43;;;;;;;3.73;3.43;;;25.60;80.00;;;;;;5109785;28;20631;-86
2022/07/29 09:22:12;;;;;;;3.47;3.17;;;25.70;78.90;;;;;;5109788;28;20620;-86
2022/07/29 09:24:41;;;;;;;3.63;3.33;;;25.80;77.20;;;;;;5105885;28;20624;-85
2022/07/29 09:27:20;;;;;;;3.70;3.40;;;26.00;76.70;;;;;;5106074;28;20680;-88
2022/07/29 09:29:47;;;;;;;3.80;3.50;;;26.10;74.30;;;;;;5108076;28;20622;-84
2022/07/29 09:32:14;;;;;;;3.40;3.10;;;26.20;75.20;;;;;;5108351;28;20673;-86
2022/07/29 09:34:41;;;;;;;4.17;3.83;;;26.30;74.10;;;;;;5107111;28;20659;-84
2022/07/29 09:37:08;;;;;;;3.47;3.17;;;26.40;72.40;;;;;;5106303;28;21186;-83
2022/07/29 09:39:45;;;;;;;3.13;2.87;;;26.30;69.70;;;;;;5108746;28;20616;-83
2022/07/29 09:42:12;;;;;;;4.83;4.43;;;26.30;70.90;;;;;;5106201;28;20636;-82
2022/07/29 09:44:48;;;;;;;3.53;3.20;;;26.10;70.80;;;;;;5107950;28;20659;-82
2022/07/29 09:47:21;;;;;;;3.33;3.13;;;26.10;70.20;;;;;;5105822;28;20653;-83
2022/07/29 09:49:54;;;;;;;3.67;3.30;;;26.40;70.70;;;;;;5107607;28;20639;-84
2022/07/29 09:52:21;;;;;;;5.33;4.90;;;26.40;68.60;;;;;;5106571;28;20627;-83
2022/07/29 09:54:49;;;;;;;4.00;3.70;;;26.90;69.40;;;;;;5100034;28;21315;-83
2022/07/29 09:57:25;;;;;;;3.20;3.00;;;26.90;69.90;;;;;;5106743;28;20630;-83
2022/07/29 10:00:00;;;;;;;3.67;3.37;;;26.90;70.50;;;;;;5100594;28;20605;-83
2022/07/29 10:02:31;;;;;;;3.80;3.50;;;27.10;66.50;;;;;;5106325;28;20707;-83
2022/07/29 10:05:02;;;;;;;3.73;3.43;;;27.10;67.30;;;;;;5108348;28;20620;-83
2022/07/29 10:07:45;;;;;;;3.30;3.10;;;27.40;66.90;;;;;;5107412;28;20619;-84
2022/07/29 10:10:21;;;;;;;3.50;3.30;;;27.50;64.30;;;;;;5107727;28;20654;-83
2022/07/29 10:12:54;;;;;;;3.53;3.23;;;27.40;67.00;;;;;;5098362;28;20677;-84
2022/07/29 10:15:23;;;;;;;4.20;3.90;;;27.40;67.90;;;;;;5103154;28;20767;-85
2022/07/29 10:17:51;;;;;;;3.67;3.37;;;27.50;68.60;;;;;;5100053;28;21504;-85
2022/07/29 10:20:18;;;;;;;3.83;3.53;;;27.50;66.30;;;;;;5087021;28;20624;-83
2022/07/29 10:22:46;;;;;;;4.07;3.73;;;27.70;66.40;;;;;;5094812;28;20626;-85
2022/07/29 10:25:16;;;;;;;13.20;3.20;;;27.70;66.60;;;;;;5106371;28;21181;-83
2022/07/29 10:27:43;;;;;;;3.93;3.63;;;27.50;68.50;;;;;;5107587;28;20741;-84
2022/07/29 10:30:15;;;;;;;3.83;3.53;;;27.30;67.20;;;;;;5107122;28;20715;-84
2022/07/29 10:32:59;;;;;;;4.30;3.90;;;27.10;68.40;;;;;;5105367;28;20620;-83
2022/07/29 10:35:54;;;;;;;3.50;3.20;;;26.90;71.20;;;;;;5089672;28;20670;-83
2022/07/29 10:38:43;;;;;;;4.40;4.10;;;26.60;72.60;;;;;;5073296;28;20624;-83
2022/07/29 10:41:52;;;;;;;4.10;3.80;;;26.30;74.40;;;;;;5108123;28;20620;-83
2022/07/29 10:44:23;;;;;;;3.60;3.30;;;26.00;73.30;;;;;;5062369;28;21201;-83
2022/07/29 10:46:51;;;;;;;3.47;3.23;;;25.70;76.10;;;;;;5107506;28;20668;-82
2022/07/29 10:49:20;;;;;;;3.47;3.23;;;25.20;73.30;;;;;;5107154;28;21193;-82
2022/07/29 10:52:09;;;;;;;4.77;4.17;;;24.80;75.10;;;;;;5106876;28;20667;-82
2022/07/29 10:54:49;;;;;;;4.87;4.47;;;24.90;78.50;;;;;;5102200;28;20690;-82
2022/07/29 10:57:20;;;;;;;3.87;3.57;;;24.60;79.80;;;;;;5108065;28;20631;-83
2022/07/29 10:59:50;;;;;;;5.70;4.93;;;24.20;86.70;;;;;;5108670;28;20698;-83
2022/07/29 11:02:43;;;;;;;6.87;4.40;;;23.70;91.20;;;;;;5108072;28;20616;-84
2022/07/29 11:05:11;;;;;;;4.87;4.43;;;23.40;93.40;;;;;;5108786;28;21424;-85
2022/07/29 11:07:40;;;;;;;4.87;4.47;;;23.10;95.30;;;;;;5111652;28;20624;-87
2022/07/29 11:10:24;;;;;;;4.33;3.70;;;22.90;97.20;;;;;;5113959;28;20620;-87
2022/07/29 11:12:52;;;;;;;5.13;4.70;;;22.50;98.60;;;;;;5112910;28;21206;-88
2022/07/29 11:15:23;;;;;;;7.53;5.40;;;22.20;98.80;;;;;;5109799;28;21218;-90
2022/07/29 11:18:08;;;;;;;5.50;5.10;;;22.50;99.90;;;;;;5111087;28;20620;-90
2022/07/29 11:20:38;;;;;;;6.47;5.87;;;22.50;99.90;;;;;;5107495;28;20679;-88
2022/07/29 11:23:27;;;;;;;5.93;5.30;;;22.30;99.90;;;;;;5112188;28;20639;-90
2022/07/29 11:26:22;;;;;;;6.13;5.60;;;21.80;99.90;;;;;;5104061;28;20623;-89
2022/07/29 11:28:53;;;;;;;6.63;6.07;;;21.90;99.90;;;;;;5112775;28;20612;-89
2022/07/29 11:31:35;;;;;;;5.53;5.03;;;21.70;99.90;;;;;;5110663;28;20653;-88
2022/07/29 11:34:22;;;;;;;6.13;5.53;;;21.50;99.90;;;;;;5109545;28;20656;-90
2022/07/29 11:37:31;;;;;;;5.80;5.07;;;21.60;99.90;;;;;;5113453;28;21379;-89
2022/07/29 11:40:16;;;;;;;5.47;5.00;;;21.60;99.90;;;;;;5113002;28;20653;-89
2022/07/29 11:42:47;;;;;;;5.33;4.90;;;21.10;99.90;;;;;;5112662;28;20650;-90
2022/07/29 11:45:17;;;;;;;5.13;4.73;;;20.90;99.90;;;;;;5115443;28;20635;-88
2022/07/29 11:47:53;;;;;;;6.00;5.40;;;20.90;99.90;;;;;;5114389;28;20632;-88
2022/07/29 11:50:35;;;;;;;5.83;5.20;;;21.20;99.90;;;;;;5109802;28;20655;-88
2022/07/29 11:53:07;;;;;;;5.10;4.53;;;21.40;99.90;;;;;;5111324;28;20612;-87
2022/07/29 11:55:37;;;;;;;5.40;4.90;;;21.20;99.90;;;;;;5112773;28;20604;-87
2022/07/29 11:58:04;;;;;;;7.67;4.90;;;21.40;99.90;;;;;;5113154;28;20639;-89
2022/07/29 12:00:33;;;;;;;4.67;4.03;;;21.30;99.90;;;;;;5113637;28;20669;-87
2022/07/29 12:03:06;;;;;;;3.27;2.97;;;21.20;99.90;;;;;;5114358;28;20611;-86
2022/07/29 12:05:39;;;;;;;3.90;3.47;;;21.20;99.90;;;;;;5112230;28;20646;-87
2022/07/29 12:08:08;;;;;;;3.40;3.10;;;21.20;99.90;;;;;;5111298;28;20715;-87
2022/07/29 12:10:35;;;;;;;2.63;2.43;;;21.10;99.90;;;;;;5101604;28;20624;-86
2022/07/29 12:13:02;;;;;;;3.77;3.40;;;21.10;99.20;;;;;;5110756;28;20635;-88
2022/07/29 12:15:31;;;;;;;4.07;3.37;;;21.10;99.50;;;;;;5111383;28;20620;-87
2022/07/29 12:17:58;;;;;;;3.80;3.47;;;20.90;99.90;;;;;;5103321;28;20686;-86
2022/07/29 12:20:29;;;;;;;3.60;3.30;;;20.80;99.90;;;;;;5111936;28;20615;-86
2022/07/29 12:22:56;;;;;;;3.60;3.30;;;20.70;99.90;;;;;;5108780;28;21263;-87
2022/07/29 12:25:24;;;;;;;3.43;3.13;;;20.80;99.90;;;;;;5109030;28;20692;-86
2022/07/29 12:28:02;;;;;;;6.07;3.57;;;20.90;99.90;;;;;;5103350;28;20649;-87
2022/07/29 12:30:40;;;;;;;4.10;3.47;;;21.10;99.90;;;;;;5108960;28;20611;-87
2022/07/29 12:33:22;;;;;;;4.60;4.20;;;21.10;99.90;;;;;;5108608;28;21494;-86
2022/07/29 12:35:53;;;;;;;3.50;3.20;;;21.20;99.90;;;;;;5109281;28;20726;-87
2022/07/29 12:38:21;;;;;;;3.30;3.00;;;21.30;99.90;;;;;;5109481;28;20669;-87
2022/07/29 12:40:50;;;;;;;5.43;3.97;;;21.30;99.90;;;;;;5107873;28;20651;-87
2022/07/29 12:43:18;;;;;;;3.70;3.00;;;21.30;99.90;;;;;;5110858;28;20620;-87
2022/07/29 12:45:47;;;;;;;3.83;3.37;;;21.30;99.90;;;;;;5110893;28;20611;-87
2022/07/29 12:48:15;;;;;;;2.90;2.70;;;21.30;99.90;;;;;;5111637;28;20739;-87
2022/07/29 12:50:57;;;;;;;3.97;3.23;;;21.20;99.90;;;;;;5110090;28;20734;-89
2022/07/29 12:53:25;;;;;;;4.10;3.70;;;21.00;99.90;;;;;;5110347;28;20722;-90
2022/07/29 12:56:17;;;;;;;4.03;3.50;;;20.60;99.90;;;;;;5093916;27;21178;-89
2022/07/29 12:58:44;;;;;;;5.20;3.70;;;20.60;99.90;;;;;;5104520;28;20623;-89
2022/07/29 13:01:14;;;;;;;3.80;3.40;;;20.50;99.90;;;;;;5104617;28;21233;-89
2022/07/29 13:03:56;;;;;;;3.77;3.47;;;20.50;99.90;;;;;;5102348;28;21180;-89